Time;durP1;ratioP1;P1;durP2;ratioP2;P2;SDS_P1;SDS_P2;PMS_P1;PMS_P2;Temp;Humidity;BMP_temperature;BMP_pressure;BME280_temperature;BME280_humidity;BME280_pressure;Samples;Min_cycle;Max_cycle;Signal;HPM_P1;HPM_P2
2023/07/31 00:00:36;;;;;;;1999.90;999.90;;;16.60;99.90;;;;;;5094052;28;20406;-73
2023/07/31 00:03:01;;;;;;;1999.90;999.90;;;16.50;99.90;;;;;;5096007;28;20039;-73
2023/07/31 00:05:27;;;;;;;1999.90;999.90;;;16.70;99.90;;;;;;5094038;28;20028;-73
2023/07/31 00:07:53;;;;;;;1999.90;999.90;;;16.70;99.90;;;;;;5094296;28;20029;-72
2023/07/31 00:10:19;;;;;;;1999.90;999.90;;;16.70;99.90;;;;;;5095750;28;20033;-72
2023/07/31 00:12:45;;;;;;;1999.90;999.90;;;16.70;99.90;;;;;;5094442;28;20029;-71
2023/07/31 00:15:11;;;;;;;1999.90;999.90;;;16.60;99.90;;;;;;5095406;28;20028;-73
2023/07/31 00:17:37;;;;;;;1999.90;999.90;;;16.50;99.90;;;;;;5095663;28;20090;-73
2023/07/31 00:20:03;;;;;;;1999.90;999.90;;;16.50;99.90;;;;;;5095062;28;20391;-74
2023/07/31 00:22:28;;;;;;;1999.90;999.90;;;16.60;99.90;;;;;;5095544;28;20028;-73
2023/07/31 00:24:54;;;;;;;1999.90;999.90;;;16.70;99.90;;;;;;5095398;28;20548;-73
2023/07/31 00:27:19;;;;;;;1999.90;999.90;;;16.70;99.90;;;;;;5095640;28;20033;-73
2023/07/31 00:29:45;;;;;;;1999.90;999.90;;;16.60;99.90;;;;;;5094694;28;20029;-73
2023/07/31 00:32:10;;;;;;;1999.90;999.90;;;16.40;99.90;;;;;;5095498;28;20039;-73
2023/07/31 00:34:36;;;;;;;1999.90;999.90;;;16.40;99.90;;;;;;5094951;28;20040;-72
2023/07/31 00:37:02;;;;;;;1999.90;999.90;;;16.40;99.90;;;;;;5095430;28;20037;-73
2023/07/31 00:39:29;;;;;;;1999.90;999.90;;;16.40;99.90;;;;;;5094716;28;20094;-73
2023/07/31 00:41:55;;;;;;;1999.90;999.90;;;16.40;99.90;;;;;;5093883;28;20598;-73
2023/07/31 00:44:20;;;;;;;1999.90;999.90;;;16.50;99.90;;;;;;5095190;28;20111;-73
2023/07/31 00:46:46;;;;;;;1999.90;999.90;;;16.40;99.90;;;;;;5095247;28;20033;-73
2023/07/31 00:49:12;;;;;;;1999.90;999.90;;;16.30;99.90;;;;;;5093291;28;20040;-72
2023/07/31 00:51:38;;;;;;;1999.90;999.90;;;16.20;99.90;;;;;;5094990;28;20028;-73
2023/07/31 00:54:04;;;;;;;1999.90;999.90;;;16.10;99.90;;;;;;5094601;28;20036;-73
2023/07/31 00:56:29;;;;;;;1999.90;999.90;;;16.00;99.90;;;;;;5095298;28;20035;-73
2023/07/31 00:58:55;;;;;;;1999.90;999.90;;;15.80;99.90;;;;;;5094736;28;20041;-73
2023/07/31 01:01:21;;;;;;;1999.90;999.90;;;15.80;99.90;;;;;;5093554;28;20033;-73
2023/07/31 01:03:48;;;;;;;1999.90;999.90;;;15.80;99.90;;;;;;5094857;28;20082;-73
2023/07/31 01:06:21;;;;;;;1999.90;999.90;;;15.80;99.90;;;;;;5094615;28;20578;-74
2023/07/31 01:09:16;;;;;;;1999.90;999.90;;;15.70;99.90;;;;;;5093088;28;20503;-73
2023/07/31 01:11:56;;;;;;;1999.90;999.90;;;15.70;99.90;;;;;;5095041;28;20025;-73
2023/07/31 01:14:21;;;;;;;1999.90;999.90;;;15.70;99.90;;;;;;5094401;28;20033;-73
2023/07/31 01:16:47;;;;;;;1999.90;999.90;;;15.70;99.90;;;;;;5095166;28;20028;-72
2023/07/31 01:19:15;;;;;;;1999.90;999.90;;;15.90;99.90;;;;;;5094379;28;20044;-73
2023/07/31 01:22:05;;;;;;;1999.90;999.90;;;16.00;99.90;;;;;;5094902;28;20028;-73
2023/07/31 01:24:55;;;;;;;1999.90;999.90;;;16.10;99.90;;;;;;5094630;28;20033;-72
2023/07/31 01:27:28;;;;;;;1999.90;999.90;;;16.00;99.90;;;;;;5095299;28;20044;-72
2023/07/31 01:30:10;;;;;;;1999.90;999.90;;;15.90;99.90;;;;;;5094571;28;20086;-72
2023/07/31 01:32:38;;;;;;;1999.90;999.90;;;15.80;99.90;;;;;;5094586;28;20108;-72
2023/07/31 01:35:05;;;;;;;1999.90;999.90;;;15.70;99.90;;;;;;5094252;28;20039;-71
2023/07/31 01:37:30;;;;;;;1999.90;999.90;;;15.60;99.90;;;;;;5094644;28;20055;-73
2023/07/31 01:39:56;;;;;;;1999.90;999.90;;;15.50;99.90;;;;;;5094098;28;20518;-73
2023/07/31 01:42:21;;;;;;;1999.90;999.90;;;15.40;99.90;;;;;;5096601;28;20029;-73
2023/07/31 01:44:47;;;;;;;1999.90;999.90;;;15.50;99.90;;;;;;5097665;28;20035;-73
2023/07/31 01:47:12;;;;;;;1999.90;999.90;;;15.50;99.90;;;;;;5097738;28;20036;-73
2023/07/31 01:49:38;;;;;;;1999.90;999.90;;;15.50;99.90;;;;;;5096475;28;20040;-73
2023/07/31 01:52:04;;;;;;;1999.90;999.90;;;15.50;99.90;;;;;;5097840;28;20399;-71
2023/07/31 01:54:29;;;;;;;1999.90;999.90;;;15.60;99.90;;;;;;5097592;28;20028;-74
2023/07/31 01:56:55;;;;;;;1999.90;999.90;;;15.50;99.90;;;;;;5097869;28;20495;-73
2023/07/31 01:59:20;;;;;;;1999.90;999.90;;;15.40;99.90;;;;;;5097577;28;20040;-73
2023/07/31 02:01:46;;;;;;;1999.90;999.90;;;15.30;99.90;;;;;;5097826;28;20035;-73
2023/07/31 02:04:11;;;;;;;1999.90;999.90;;;15.20;99.90;;;;;;5097442;28;20040;-73
2023/07/31 02:06:37;;;;;;;1999.90;999.90;;;15.20;99.90;;;;;;5097527;28;20036;-72
2023/07/31 02:09:03;;;;;;;1999.90;999.90;;;15.20;99.90;;;;;;5095935;28;20028;-72
2023/07/31 02:11:29;;;;;;;1999.90;999.90;;;15.20;99.90;;;;;;5097682;28;20035;-71
2023/07/31 02:13:54;;;;;;;1999.90;999.90;;;15.20;99.90;;;;;;5095770;28;20040;-72
2023/07/31 02:16:20;;;;;;;1999.90;999.90;;;15.30;99.90;;;;;;5095985;28;20036;-73
2023/07/31 02:18:45;;;;;;;1999.90;999.90;;;15.30;99.90;;;;;;5094900;28;20048;-72
2023/07/31 02:21:11;;;;;;;1999.90;999.90;;;15.30;99.90;;;;;;5097583;28;20035;-73
2023/07/31 02:23:36;;;;;;;1999.90;999.90;;;15.30;99.90;;;;;;5097503;28;20028;-72
2023/07/31 02:26:02;;;;;;;1999.90;999.90;;;15.40;99.90;;;;;;5097162;28;20123;-72
2023/07/31 02:28:28;;;;;;;1999.90;999.90;;;15.40;99.90;;;;;;5097099;28;20039;-73
2023/07/31 02:30:53;;;;;;;1999.90;999.90;;;15.50;99.90;;;;;;5096079;28;20051;-73
2023/07/31 02:33:19;;;;;;;1999.90;999.90;;;15.50;99.90;;;;;;5097442;28;20035;-73
2023/07/31 02:35:44;;;;;;;1999.90;999.90;;;15.50;99.90;;;;;;5097059;28;20086;-73
2023/07/31 02:38:10;;;;;;;1999.90;999.90;;;15.60;99.90;;;;;;5095682;28;20046;-73
2023/07/31 02:40:35;;;;;;;1999.90;999.90;;;15.60;99.90;;;;;;5097014;28;20099;-73
2023/07/31 02:43:01;;;;;;;1999.90;999.90;;;15.60;99.90;;;;;;5097036;28;20029;-73
2023/07/31 02:45:26;;;;;;;1999.90;999.90;;;15.60;99.90;;;;;;5096778;28;20124;-73
2023/07/31 02:47:52;;;;;;;1999.90;999.90;;;15.60;99.90;;;;;;5096986;28;20056;-73
2023/07/31 02:50:17;;;;;;;1999.90;999.90;;;15.60;99.90;;;;;;5096751;28;20043;-73
2023/07/31 02:52:43;;;;;;;1999.90;999.90;;;15.60;99.90;;;;;;5095028;28;20040;-74
2023/07/31 02:55:08;;;;;;;1999.90;999.90;;;15.70;99.90;;;;;;5096615;28;20040;-73
2023/07/31 02:57:34;;;;;;;1999.90;999.90;;;15.70;99.90;;;;;;5096853;28;20035;-73
2023/07/31 03:00:00;;;;;;;1999.90;999.90;;;15.70;99.90;;;;;;5096388;28;20045;-73
2023/07/31 03:02:25;;;;;;;1999.90;999.90;;;15.70;99.90;;;;;;5096971;28;20028;-73
2023/07/31 03:04:51;;;;;;;1999.90;999.90;;;15.80;99.90;;;;;;5096506;28;20044;-73
2023/07/31 03:07:16;;;;;;;1999.90;999.90;;;15.80;99.90;;;;;;5096841;28;20036;-71
2023/07/31 03:09:42;;;;;;;1999.90;999.90;;;15.90;99.90;;;;;;5100126;28;20398;-73
2023/07/31 03:12:08;;;;;;;1999.90;999.90;;;15.90;99.90;;;;;;5108514;28;20032;-73
2023/07/31 03:14:33;;;;;;;1999.90;999.90;;;15.90;99.90;;;;;;5096368;28;20036;-72
2023/07/31 03:16:59;;;;;;;1999.90;999.90;;;15.80;99.90;;;;;;5096830;28;20028;-73
2023/07/31 03:19:25;;;;;;;1999.90;999.90;;;15.80;99.90;;;;;;5095979;28;20622;-71
2023/07/31 03:21:50;;;;;;;1999.90;999.90;;;15.80;99.90;;;;;;5100650;28;20063;-71
2023/07/31 03:24:16;;;;;;;1999.90;999.90;;;15.70;99.90;;;;;;5100277;28;20075;-71
2023/07/31 03:26:41;;;;;;;1999.90;999.90;;;15.60;99.90;;;;;;5115038;28;20581;-70
2023/07/31 03:29:08;;;;;;;1999.90;999.90;;;15.60;99.90;;;;;;5116955;28;20361;-71
2023/07/31 03:31:33;;;;;;;1999.90;999.90;;;15.60;99.90;;;;;;5117229;28;20032;-71
2023/07/31 03:33:59;;;;;;;1999.90;999.90;;;15.70;99.90;;;;;;5113284;28;20410;-71
2023/07/31 03:36:24;;;;;;;1999.90;999.90;;;15.70;99.90;;;;;;5116860;28;20032;-70
2023/07/31 03:38:52;;;;;;;1999.90;999.90;;;15.70;99.90;;;;;;5116197;28;20040;-71
2023/07/31 03:41:17;;;;;;;1999.90;999.90;;;15.70;99.90;;;;;;5116579;28;20074;-71
2023/07/31 03:43:43;;;;;;;1999.90;999.90;;;15.80;99.90;;;;;;5116022;28;20036;-70
2023/07/31 03:46:08;;;;;;;1999.90;999.90;;;15.80;99.90;;;;;;5116309;28;20036;-71
2023/07/31 03:48:34;;;;;;;1999.90;999.90;;;15.60;99.90;;;;;;5116143;28;20035;-70
2023/07/31 03:51:00;;;;;;;1999.90;999.90;;;15.60;99.90;;;;;;5116510;28;20036;-70
2023/07/31 03:53:25;;;;;;;1999.90;999.90;;;15.50;99.90;;;;;;5116471;28;20089;-71
2023/07/31 03:55:51;;;;;;;1999.90;999.90;;;15.50;99.90;;;;;;5116014;28;20063;-70
2023/07/31 03:58:16;;;;;;;1999.90;999.90;;;15.40;99.90;;;;;;5116359;28;20070;-70
2023/07/31 04:00:42;;;;;;;1999.90;999.90;;;15.50;99.90;;;;;;5116090;28;20040;-71
2023/07/31 04:03:07;;;;;;;1999.90;999.90;;;15.50;99.90;;;;;;5115400;27;20036;-71
2023/07/31 04:05:33;;;;;;;1999.90;999.90;;;15.60;99.90;;;;;;5115454;28;20047;-72
2023/07/31 04:07:58;;;;;;;1999.90;999.90;;;15.50;99.90;;;;;;5114694;28;20020;-71
2023/07/31 04:10:24;;;;;;;1999.90;999.90;;;15.50;99.90;;;;;;5115699;28;20035;-71
2023/07/31 04:12:50;;;;;;;1999.90;999.90;;;15.40;99.90;;;;;;5116223;28;20055;-71
2023/07/31 04:15:15;;;;;;;1999.90;999.90;;;15.40;99.90;;;;;;5115942;28;20112;-71
2023/07/31 04:17:41;;;;;;;1999.90;999.90;;;15.40;99.90;;;;;;5116079;28;20036;-71
2023/07/31 04:20:07;;;;;;;1999.90;999.90;;;15.40;99.90;;;;;;5114278;28;20082;-71
2023/07/31 04:22:32;;;;;;;1999.90;999.90;;;15.30;99.90;;;;;;5115956;28;20027;-72
2023/07/31 04:24:58;;;;;;;1999.90;999.90;;;15.30;99.90;;;;;;5115432;28;20085;-71
2023/07/31 04:27:23;;;;;;;1999.90;999.90;;;15.40;99.90;;;;;;5115594;28;20032;-72
2023/07/31 04:29:49;;;;;;;1999.90;999.90;;;15.50;99.90;;;;;;5115632;28;20032;-72
2023/07/31 04:32:16;;;;;;;1999.90;999.90;;;15.60;99.90;;;;;;5115813;28;20040;-72
2023/07/31 04:34:42;;;;;;;1999.90;999.90;;;15.70;99.90;;;;;;5115366;28;20032;-72
2023/07/31 04:37:07;;;;;;;1999.90;999.90;;;15.80;99.90;;;;;;5115710;28;20039;-71
2023/07/31 04:39:33;;;;;;;1999.90;999.90;;;15.90;99.90;;;;;;5115134;28;20047;-71
2023/07/31 04:41:59;;;;;;;1999.90;999.90;;;15.90;99.90;;;;;;5115159;28;20115;-72
2023/07/31 04:44:24;;;;;;;1999.90;999.90;;;15.90;99.90;;;;;;5115475;28;20036;-72
2023/07/31 04:46:50;;;;;;;1999.90;999.90;;;16.00;99.90;;;;;;5114146;28;20058;-72
2023/07/31 04:49:15;;;;;;;1999.90;999.90;;;16.00;99.90;;;;;;5115498;28;20024;-71
2023/07/31 04:51:41;;;;;;;1999.90;999.90;;;16.10;99.90;;;;;;5115245;28;20082;-72
2023/07/31 04:54:06;;;;;;;1999.90;999.90;;;16.20;99.90;;;;;;5115239;28;20036;-72
2023/07/31 04:56:32;;;;;;;1999.90;999.90;;;16.30;99.90;;;;;;5115132;28;20032;-72
2023/07/31 04:58:57;;;;;;;1999.90;999.90;;;16.40;99.90;;;;;;5115378;28;20032;-72
2023/07/31 05:01:23;;;;;;;1999.90;999.90;;;16.50;99.90;;;;;;5115255;28;20093;-71
2023/07/31 05:03:48;;;;;;;1999.90;999.90;;;16.50;99.90;;;;;;5115445;28;20095;-72
2023/07/31 05:06:15;;;;;;;1999.90;999.90;;;16.60;99.90;;;;;;5115020;28;20032;-72
2023/07/31 05:08:40;;;;;;;1999.90;999.90;;;16.60;99.90;;;;;;5115012;28;20031;-70
2023/07/31 05:11:06;;;;;;;1999.90;999.90;;;16.60;99.90;;;;;;5115071;28;20411;-72
2023/07/31 05:13:32;;;;;;;1999.90;999.90;;;16.60;99.90;;;;;;5115332;28;20403;-72
2023/07/31 05:15:57;;;;;;;1999.90;999.90;;;16.70;99.90;;;;;;5114846;27;20028;-71
2023/07/31 05:18:23;;;;;;;1999.90;999.90;;;16.70;99.90;;;;;;5114912;28;20510;-72
2023/07/31 05:20:48;;;;;;;1999.90;999.90;;;16.80;99.90;;;;;;5115064;28;20036;-72
2023/07/31 05:23:14;;;;;;;1999.90;999.90;;;16.80;99.90;;;;;;5114981;28;20094;-72
2023/07/31 05:25:40;;;;;;;1999.90;999.90;;;16.90;99.90;;;;;;5113009;28;20133;-70
2023/07/31 05:28:05;;;;;;;1999.90;999.90;;;17.00;99.90;;;;;;5115237;28;20119;-72
2023/07/31 05:30:31;;;;;;;1999.90;999.90;;;17.00;99.90;;;;;;5114721;28;20058;-73
2023/07/31 05:32:57;;;;;;;1999.90;999.90;;;17.20;99.90;;;;;;5115189;28;20395;-72
2023/07/31 05:35:22;;;;;;;1999.90;999.90;;;17.30;99.90;;;;;;5114496;28;20162;-72
2023/07/31 05:37:48;;;;;;;1999.90;999.90;;;17.40;99.90;;;;;;5114829;28;20032;-72
2023/07/31 05:40:14;;;;;;;1999.90;999.90;;;17.40;99.90;;;;;;5082376;22;20398;-69
2023/07/31 05:42:39;;;;;;;1999.90;999.90;;;17.50;99.90;;;;;;5034062;28;20396;-69
2023/07/31 05:45:07;;;;;;;1999.90;999.90;;;17.40;99.90;;;;;;5033435;28;20503;-68
2023/07/31 05:47:33;;;;;;;1999.90;999.90;;;17.40;99.90;;;;;;5033874;28;20026;-69
2023/07/31 05:49:58;;;;;;;1999.90;999.90;;;17.30;99.90;;;;;;5033735;28;20034;-69
2023/07/31 05:52:24;;;;;;;1999.90;999.90;;;17.20;99.90;;;;;;5033888;28;20053;-69
2023/07/31 05:54:50;;;;;;;1999.90;999.90;;;17.10;99.90;;;;;;5033717;28;20026;-70
2023/07/31 05:57:15;;;;;;;1999.90;999.90;;;17.00;99.90;;;;;;5034249;28;20033;-69
2023/07/31 05:59:41;;;;;;;1999.90;999.90;;;16.90;99.90;;;;;;5033452;28;20041;-69
2023/07/31 06:02:07;;;;;;;1999.90;999.90;;;16.90;99.90;;;;;;5033930;28;20048;-69
2023/07/31 06:04:32;;;;;;;1999.90;999.90;;;16.90;99.90;;;;;;5033340;28;20084;-69
2023/07/31 06:06:58;;;;;;;1999.90;999.90;;;16.90;99.90;;;;;;5033835;28;20523;-69
2023/07/31 06:09:24;;;;;;;1999.90;999.90;;;17.00;99.90;;;;;;5034053;28;20065;-72
2023/07/31 06:11:49;;;;;;;1999.90;999.90;;;17.20;99.90;;;;;;5033717;28;20113;-68
2023/07/31 06:14:15;;;;;;;1999.90;999.90;;;17.30;99.90;;;;;;5033430;28;20040;-68
2023/07/31 06:16:41;;;;;;;1999.90;999.90;;;17.50;99.90;;;;;;5033827;28;20030;-69
2023/07/31 06:19:07;;;;;;;1999.90;999.90;;;17.60;99.90;;;;;;5033381;28;20029;-69
2023/07/31 06:21:33;;;;;;;1999.90;999.90;;;17.90;99.90;;;;;;5033661;28;20037;-69
2023/07/31 06:23:58;;;;;;;1999.90;999.90;;;17.90;99.90;;;;;;5033504;28;20053;-68
2023/07/31 06:26:24;;;;;;;1999.90;999.90;;;18.00;99.90;;;;;;5032293;28;20033;-70
2023/07/31 06:28:49;;;;;;;1999.90;999.90;;;18.10;99.90;;;;;;5036575;28;20513;-72
2023/07/31 06:31:15;;;;;;;1999.90;999.90;;;18.30;99.90;;;;;;5036958;28;20033;-72
2023/07/31 06:33:40;;;;;;;1999.90;999.90;;;18.50;99.90;;;;;;5036862;28;20438;-71
2023/07/31 06:36:06;;;;;;;1999.90;999.90;;;18.90;99.90;;;;;;5036566;28;20501;-72
2023/07/31 06:38:31;;;;;;;1999.90;999.90;;;19.20;99.90;;;;;;5036283;28;20474;-71
2023/07/31 06:40:57;;;;;;;1999.90;999.90;;;19.70;99.90;;;;;;5035985;28;20054;-71
2023/07/31 06:43:22;;;;;;;1999.90;999.90;;;20.00;99.90;;;;;;5036750;28;20397;-72
2023/07/31 06:45:51;;;;;;;1999.90;999.90;;;20.30;99.90;;;;;;5036468;28;20485;-72
2023/07/31 06:48:16;;;;;;;1999.90;999.90;;;20.70;99.30;;;;;;5036429;28;20034;-72
2023/07/31 06:50:42;;;;;;;1999.90;999.90;;;20.90;99.00;;;;;;5036510;28;20033;-72
2023/07/31 06:53:07;;;;;;;1999.90;999.90;;;21.10;98.80;;;;;;5036370;28;20105;-70
2023/07/31 06:55:33;;;;;;;1999.90;999.90;;;21.40;98.30;;;;;;5034719;28;20034;-73
2023/07/31 06:57:58;;;;;;;1999.90;999.90;;;21.60;98.50;;;;;;5036523;28;20069;-72
2023/07/31 07:00:24;;;;;;;1999.90;999.90;;;21.70;98.10;;;;;;5036313;28;20485;-72
2023/07/31 07:02:50;;;;;;;1999.90;999.90;;;22.00;96.60;;;;;;5036419;28;20462;-73
2023/07/31 07:05:16;;;;;;;1999.90;999.90;;;22.30;96.20;;;;;;5035860;28;20116;-72
2023/07/31 07:07:42;;;;;;;1999.90;999.90;;;22.40;96.30;;;;;;5036109;28;20820;-72
2023/07/31 07:10:08;;;;;;;1999.90;999.90;;;22.50;95.70;;;;;;5036019;28;20034;-73
2023/07/31 07:12:34;;;;;;;1999.90;999.90;;;22.40;95.60;;;;;;5036179;28;20126;-72
2023/07/31 07:15:00;;;;;;;1999.90;999.90;;;22.40;95.80;;;;;;5036160;28;20082;-72
2023/07/31 07:17:32;;;;;;;1999.90;999.90;;;22.40;95.70;;;;;;5036462;28;20117;-72
2023/07/31 07:19:58;;;;;;;1999.90;999.90;;;22.20;95.90;;;;;;5035723;28;20038;-72
2023/07/31 07:22:25;;;;;;;1999.90;999.90;;;22.00;97.10;;;;;;5035864;28;20034;-72
2023/07/31 07:24:51;;;;;;;1999.90;999.90;;;21.90;95.40;;;;;;5035811;28;20117;-72
2023/07/31 07:27:16;;;;;;;1999.90;999.90;;;22.00;95.00;;;;;;5036113;28;20034;-72
2023/07/31 07:29:42;;;;;;;1999.90;999.90;;;22.00;96.20;;;;;;5035874;28;20405;-70
2023/07/31 07:32:08;;;;;;;1999.90;999.90;;;22.00;95.30;;;;;;5036016;28;20033;-73
2023/07/31 07:34:33;;;;;;;1999.90;999.90;;;21.90;96.90;;;;;;5035707;28;20045;-72
2023/07/31 07:36:59;;;;;;;1999.90;999.90;;;22.10;95.50;;;;;;5035867;28;20036;-72
2023/07/31 07:39:24;;;;;;;1999.90;999.90;;;21.90;96.00;;;;;;5033961;28;20445;-73
2023/07/31 07:41:50;;;;;;;1999.90;999.90;;;21.80;95.80;;;;;;5034238;28;20062;-72
2023/07/31 07:44:16;;;;;;;1999.90;999.90;;;21.70;96.50;;;;;;5035470;28;20413;-72
2023/07/31 07:46:41;;;;;;;1999.90;999.90;;;21.60;95.60;;;;;;5034068;28;20089;-72
2023/07/31 07:49:07;;;;;;;1999.90;999.90;;;21.70;95.50;;;;;;5035699;28;20038;-72
2023/07/31 07:51:33;;;;;;;1999.90;999.90;;;22.00;96.00;;;;;;5035464;28;20034;-72
2023/07/31 07:53:59;;;;;;;1999.90;999.90;;;22.30;95.10;;;;;;5035231;28;20073;-72
2023/07/31 07:56:28;;;;;;;1999.90;999.90;;;22.40;94.10;;;;;;5034068;28;20112;-72
2023/07/31 07:58:54;;;;;;;1999.90;999.90;;;22.60;93.90;;;;;;5035398;28;20088;-73
2023/07/31 08:01:20;;;;;;;1999.90;999.90;;;22.70;93.80;;;;;;5034298;28;20133;-72
2023/07/31 08:03:46;;;;;;;1999.90;999.90;;;22.80;95.10;;;;;;5035537;28;20061;-72
2023/07/31 08:06:12;;;;;;;1999.90;999.90;;;23.10;94.30;;;;;;5034591;28;20042;-72
2023/07/31 08:08:38;;;;;;;1999.90;999.90;;;22.90;94.50;;;;;;5035172;28;20041;-72
2023/07/31 08:11:04;;;;;;;1999.90;999.90;;;22.70;93.40;;;;;;5035282;28;20057;-72
2023/07/31 08:13:30;;;;;;;1999.90;999.90;;;22.60;93.90;;;;;;5035267;28;20030;-73
2023/07/31 08:15:55;;;;;;;1999.90;999.90;;;22.60;93.80;;;;;;5034809;28;20042;-72
2023/07/31 08:18:21;;;;;;;1999.90;999.90;;;22.50;94.20;;;;;;5035346;28;20118;-73
2023/07/31 08:20:47;;;;;;;1999.90;999.90;;;23.10;93.20;;;;;;5034844;28;20397;-72
2023/07/31 08:23:12;;;;;;;1999.90;999.90;;;23.50;93.60;;;;;;5035360;28;20405;-72
2023/07/31 08:25:39;;;;;;;1999.90;999.90;;;23.90;93.10;;;;;;5034902;28;20104;-72
2023/07/31 08:28:05;;;;;;;1999.90;999.90;;;24.00;90.80;;;;;;5034925;28;20108;-72
2023/07/31 08:30:31;;;;;;;1999.90;999.90;;;23.90;91.70;;;;;;5033467;28;20497;-72
2023/07/31 08:32:57;;;;;;;1999.90;999.90;;;24.10;91.60;;;;;;5035078;28;20037;-72
2023/07/31 08:35:23;;;;;;;1999.90;999.90;;;23.90;90.70;;;;;;5034409;28;20041;-72
2023/07/31 08:37:49;;;;;;;1999.90;999.90;;;23.50;91.40;;;;;;5034993;28;20076;-72
2023/07/31 08:40:14;;;;;;;1999.90;999.90;;;23.20;94.30;;;;;;5033986;28;20515;-72
2023/07/31 08:42:47;;;;;;;1999.90;999.90;;;23.30;92.30;;;;;;5033415;28;20608;-72
2023/07/31 08:45:17;;;;;;;1999.90;999.90;;;23.40;92.20;;;;;;5034487;28;20029;-71
2023/07/31 08:47:51;;;;;;;1999.90;999.90;;;23.70;92.40;;;;;;5033308;28;20033;-71
2023/07/31 08:50:19;;;;;;;1999.90;999.90;;;24.10;92.10;;;;;;5033913;28;20034;-71
2023/07/31 08:52:47;;;;;;;1999.90;999.90;;;24.10;91.00;;;;;;5034668;28;20036;-71
2023/07/31 08:55:13;;;;;;;1999.90;999.90;;;23.90;90.30;;;;;;5034360;28;20075;-70
2023/07/31 08:57:39;;;;;;;1999.90;999.90;;;23.80;90.80;;;;;;5034361;28;21040;-74
2023/07/31 09:00:06;;;;;;;1999.90;999.90;;;23.80;91.30;;;;;;5032949;28;20117;-72
2023/07/31 09:02:41;;;;;;;1999.90;999.90;;;23.60;90.90;;;;;;5033367;28;20105;-73
2023/07/31 09:05:07;;;;;;;1999.90;999.90;;;23.80;92.20;;;;;;5034297;28;20033;-74
2023/07/31 09:07:36;;;;;;;1999.90;999.90;;;24.10;92.40;;;;;;5034496;28;20034;-75
2023/07/31 09:10:03;;;;;;;1999.90;999.90;;;24.10;90.90;;;;;;5034315;28;20033;-74
2023/07/31 09:12:29;;;;;;;1999.90;999.90;;;24.50;91.30;;;;;;5033080;28;20549;-74
2023/07/31 09:14:57;;;;;;;1999.90;999.90;;;25.10;90.10;;;;;;5034698;28;20121;-77
2023/07/31 09:17:33;;;;;;;1999.90;999.90;;;24.90;88.50;;;;;;5034501;28;20033;-73
2023/07/31 09:20:14;;;;;;;1999.90;999.90;;;24.90;88.50;;;;;;5034569;28;20040;-74
2023/07/31 09:22:40;;;;;;;1999.90;999.90;;;25.10;88.10;;;;;;5034530;28;20504;-74
2023/07/31 09:25:25;;;;;;;1999.90;999.90;;;25.80;89.60;;;;;;5033972;28;20073;-72
2023/07/31 09:27:59;;;;;;;1999.90;999.90;;;25.90;86.40;;;;;;5034114;28;20104;-72
2023/07/31 09:30:25;;;;;;;1999.90;999.90;;;26.10;86.80;;;;;;5032574;28;20517;-73
2023/07/31 09:33:00;;;;;;;1999.90;999.90;;;26.50;87.10;;;;;;5034468;28;20501;-73
2023/07/31 09:35:31;;;;;;;1999.90;999.90;;;26.30;83.30;;;;;;5034272;28;20065;-73
2023/07/31 09:38:03;;;;;;;1999.90;999.90;;;26.60;84.40;;;;;;5034214;28;20515;-74
2023/07/31 09:40:38;;;;;;;1999.90;999.90;;;26.90;85.50;;;;;;5033689;28;20080;-73
2023/07/31 09:43:05;;;;;;;1999.90;999.90;;;26.40;81.70;;;;;;5032442;28;20052;-74
2023/07/31 09:45:37;;;;;;;1999.90;999.90;;;26.10;85.40;;;;;;5033996;28;20097;-74
2023/07/31 09:48:06;;;;;;;1999.90;999.90;;;25.80;85.30;;;;;;5034009;28;20034;-74
2023/07/31 09:50:32;;;;;;;1999.90;999.90;;;25.80;84.80;;;;;;5033723;28;20030;-72
2023/07/31 09:52:57;;;;;;;1999.90;999.90;;;25.80;83.60;;;;;;5034316;28;20030;-77
2023/07/31 09:55:24;;;;;;;1999.90;999.90;;;25.50;86.10;;;;;;5034502;28;20092;-74
2023/07/31 09:57:49;;;;;;;1999.90;999.90;;;25.60;87.40;;;;;;5033972;28;20092;-73
2023/07/31 10:00:17;;;;;;;1999.90;999.90;;;26.00;87.10;;;;;;5033895;28;20099;-73
2023/07/31 10:02:47;;;;;;;1999.90;999.90;;;26.60;87.90;;;;;;5035988;28;20030;-74
2023/07/31 10:05:15;;;;;;;1999.90;999.90;;;27.40;82.00;;;;;;5035617;28;20099;-74
2023/07/31 10:07:50;;;;;;;1999.90;999.90;;;27.50;82.60;;;;;;5037281;28;20850;-73
2023/07/31 10:10:16;;;;;;;1999.90;999.90;;;27.30;81.00;;;;;;5036392;28;20042;-73
2023/07/31 10:12:43;;;;;;;1999.90;999.90;;;27.10;82.50;;;;;;5037179;28;20378;-74
2023/07/31 10:15:09;;;;;;;1999.90;999.90;;;26.60;82.80;;;;;;5037129;28;20065;-73
2023/07/31 10:17:36;;;;;;;1999.90;999.90;;;26.60;86.10;;;;;;5037001;28;20033;-73
2023/07/31 10:20:04;;;;;;;1999.90;999.90;;;26.50;81.40;;;;;;5037009;28;20117;-74
2023/07/31 10:22:32;;;;;;;1999.90;999.90;;;26.50;83.50;;;;;;5037143;28;20022;-75
2023/07/31 10:24:58;;;;;;;1999.90;999.90;;;26.40;82.90;;;;;;5036971;28;20034;-73
2023/07/31 10:27:24;;;;;;;1999.90;999.90;;;26.30;85.40;;;;;;5037156;28;20026;-74
2023/07/31 10:29:51;;;;;;;1999.90;999.90;;;26.50;82.70;;;;;;5036770;28;20436;-72
2023/07/31 10:32:19;;;;;;;1999.90;999.90;;;26.50;87.10;;;;;;5037277;28;20040;-73
2023/07/31 10:34:45;;;;;;;1999.90;999.90;;;26.50;80.20;;;;;;5035287;28;20040;-73
2023/07/31 10:37:27;;;;;;;1999.90;999.90;;;26.20;82.40;;;;;;5036942;28;20030;-77
2023/07/31 10:40:04;;;;;;;1999.90;999.90;;;25.90;81.10;;;;;;5037087;28;20042;-71
2023/07/31 10:42:38;;;;;;;1999.90;999.90;;;25.80;82.00;;;;;;5035414;28;20033;-76
2023/07/31 10:45:11;;;;;;;1999.90;999.90;;;26.20;87.20;;;;;;5036913;28;20140;-70
2023/07/31 10:47:45;;;;;;;1999.90;999.90;;;26.70;81.00;;;;;;5036944;28;20030;-79
2023/07/31 10:50:13;;;;;;;1999.90;999.90;;;26.80;79.90;;;;;;5036712;28;20469;-72
2023/07/31 10:52:39;;;;;;;1999.90;999.90;;;27.00;77.30;;;;;;5037711;28;20040;-77
2023/07/31 10:55:32;;;;;;;1999.90;999.90;;;27.00;77.10;;;;;;5034817;28;20056;-72
2023/07/31 10:58:08;;;;;;;1999.90;999.90;;;27.20;79.00;;;;;;5036789;28;20045;-71
2023/07/31 11:00:38;;;;;;;1999.90;999.90;;;27.00;77.20;;;;;;5036005;28;20066;-71
2023/07/31 11:03:11;;;;;;;1999.90;999.90;;;26.90;78.20;;;;;;5036754;28;20100;-69
2023/07/31 11:05:58;;;;;;;1999.90;999.90;;;26.90;76.10;;;;;;5036499;28;20493;-70
2023/07/31 11:08:25;;;;;;;1999.90;999.90;;;26.90;79.70;;;;;;5036725;28;20038;-67
2023/07/31 11:11:04;;;;;;;1999.90;999.90;;;27.10;79.60;;;;;;5035136;28;20034;-74
2023/07/31 11:13:53;;;;;;;1999.90;999.90;;;26.80;80.60;;;;;;5036236;28;20037;-72
2023/07/31 11:16:23;;;;;;;1999.90;999.90;;;26.60;78.60;;;;;;5031698;28;20045;-70
2023/07/31 11:18:51;;;;;;;1999.90;999.90;;;26.40;82.00;;;;;;5035739;28;20570;-73
2023/07/31 11:21:21;;;;;;;1999.90;999.90;;;26.30;81.30;;;;;;5035977;28;20485;-68
2023/07/31 11:23:53;;;;;;;1999.90;999.90;;;26.50;80.30;;;;;;5035870;28;20038;-73
2023/07/31 11:26:19;;;;;;;1999.90;999.90;;;26.50;77.30;;;;;;5017914;28;20061;-74
2023/07/31 11:28:49;;;;;;;1999.90;999.90;;;26.80;81.00;;;;;;5017440;28;20042;-68
2023/07/31 11:31:14;;;;;;;1999.90;999.90;;;27.10;77.50;;;;;;5034279;28;20122;-67
2023/07/31 11:33:40;;;;;;;1999.90;999.90;;;27.40;76.20;;;;;;5017890;28;20034;-67
2023/07/31 11:36:14;;;;;;;1999.90;999.90;;;27.00;75.90;;;;;;5034978;28;20037;-68
2023/07/31 11:38:40;;;;;;;1999.90;999.90;;;27.00;77.80;;;;;;5034711;28;20097;-69
2023/07/31 11:41:06;;;;;;;1999.90;999.90;;;27.10;76.90;;;;;;5039104;28;20070;-70
2023/07/31 11:43:32;;;;;;;1999.90;999.90;;;26.90;76.90;;;;;;5043896;28;20034;-71
2023/07/31 11:46:02;;;;;;;1999.90;999.90;;;27.00;77.50;;;;;;5038352;28;20045;-74
2023/07/31 11:48:33;;;;;;;1999.90;999.90;;;27.50;77.60;;;;;;5041505;28;20026;-71
2023/07/31 11:51:08;;;;;;;1999.90;999.90;;;27.60;76.30;;;;;;5036981;28;20034;-74
2023/07/31 11:53:41;;;;;;;1999.90;999.90;;;26.90;75.80;;;;;;5038566;28;20070;-74
2023/07/31 11:56:08;;;;;;;1999.90;999.90;;;26.30;77.40;;;;;;5037209;28;20041;-74
2023/07/31 11:58:35;;;;;;;1999.90;999.90;;;26.00;76.70;;;;;;5036189;28;20545;-74